sensor_id;sensor_type;location;lat;lon;timestamp;P1;durP1;ratioP1;P2;durP2;ratioP2
7471;SDS011;3777;48.722;8.110;2023-12-29T00:01:12;7.07;;;5.27;;
7471;SDS011;3777;48.722;8.110;2023-12-29T00:03:39;5.60;;;4.40;;
7471;SDS011;3777;48.722;8.110;2023-12-29T00:06:06;5.50;;;4.77;;
7471;SDS011;3777;48.722;8.110;2023-12-29T00:08:33;5.73;;;4.60;;
7471;SDS011;3777;48.722;8.110;2023-12-29T00:11:00;5.17;;;4.53;;
7471;SDS011;3777;48.722;8.110;2023-12-29T00:13:27;5.90;;;4.63;;
7471;SDS011;3777;48.722;8.110;2023-12-29T00:15:55;4.83;;;4.43;;
7471;SDS011;3777;48.722;8.110;2023-12-29T00:18:23;5.63;;;4.70;;
7471;SDS011;3777;48.722;8.110;2023-12-29T00:20:50;5.67;;;4.90;;
7471;SDS011;3777;48.722;8.110;2023-12-29T00:23:17;5.43;;;4.87;;
7471;SDS011;3777;48.722;8.110;2023-12-29T00:25:44;7.27;;;4.50;;
7471;SDS011;3777;48.722;8.110;2023-12-29T00:28:11;8.27;;;4.70;;
7471;SDS011;3777;48.722;8.110;2023-12-29T00:30:38;5.67;;;4.77;;
7471;SDS011;3777;48.722;8.110;2023-12-29T00:33:08;5.90;;;5.20;;
7471;SDS011;3777;48.722;8.110;2023-12-29T00:35:38;5.33;;;4.83;;
7471;SDS011;3777;48.722;8.110;2023-12-29T00:38:05;5.60;;;4.90;;
7471;SDS011;3777;48.722;8.110;2023-12-29T00:40:32;7.43;;;4.83;;
7471;SDS011;3777;48.722;8.110;2023-12-29T00:42:59;5.63;;;5.03;;
7471;SDS011;3777;48.722;8.110;2023-12-29T00:45:27;5.40;;;4.90;;
7471;SDS011;3777;48.722;8.110;2023-12-29T00:47:57;5.43;;;4.93;;
7471;SDS011;3777;48.722;8.110;2023-12-29T00:50:28;5.73;;;5.10;;
7471;SDS011;3777;48.722;8.110;2023-12-29T00:52:55;5.77;;;5.17;;
7471;SDS011;3777;48.722;8.110;2023-12-29T00:55:22;5.70;;;5.03;;
7471;SDS011;3777;48.722;8.110;2023-12-29T00:57:49;5.67;;;4.83;;
7471;SDS011;3777;48.722;8.110;2023-12-29T01:00:16;6.27;;;4.83;;
7471;SDS011;3777;48.722;8.110;2023-12-29T01:02:46;6.73;;;5.40;;
7471;SDS011;3777;48.722;8.110;2023-12-29T01:05:14;6.07;;;4.77;;
7471;SDS011;3777;48.722;8.110;2023-12-29T01:07:43;6.57;;;5.20;;
7471;SDS011;3777;48.722;8.110;2023-12-29T01:10:10;5.70;;;5.20;;
7471;SDS011;3777;48.722;8.110;2023-12-29T01:12:37;5.47;;;4.90;;
7471;SDS011;3777;48.722;8.110;2023-12-29T01:15:05;5.97;;;5.37;;
7471;SDS011;3777;48.722;8.110;2023-12-29T01:17:32;5.60;;;5.10;;
7471;SDS011;3777;48.722;8.110;2023-12-29T01:19:59;5.80;;;5.20;;
7471;SDS011;3777;48.722;8.110;2023-12-29T01:22:30;7.20;;;5.13;;
7471;SDS011;3777;48.722;8.110;2023-12-29T01:24:59;5.77;;;5.17;;
7471;SDS011;3777;48.722;8.110;2023-12-29T01:27:27;6.47;;;5.20;;
7471;SDS011;3777;48.722;8.110;2023-12-29T01:29:55;5.57;;;4.90;;
7471;SDS011;3777;48.722;8.110;2023-12-29T01:32:22;5.23;;;4.67;;
7471;SDS011;3777;48.722;8.110;2023-12-29T01:34:49;5.93;;;5.27;;
7471;SDS011;3777;48.722;8.110;2023-12-29T01:37:18;5.87;;;5.20;;
7471;SDS011;3777;48.722;8.110;2023-12-29T01:39:45;5.87;;;4.83;;
7471;SDS011;3777;48.722;8.110;2023-12-29T01:42:16;8.13;;;5.70;;
7471;SDS011;3777;48.722;8.110;2023-12-29T01:44:43;6.37;;;5.27;;
7471;SDS011;3777;48.722;8.110;2023-12-29T01:47:11;6.17;;;5.20;;
7471;SDS011;3777;48.722;8.110;2023-12-29T01:49:39;6.23;;;5.20;;
7471;SDS011;3777;48.722;8.110;2023-12-29T01:52:06;5.50;;;4.97;;
7471;SDS011;3777;48.722;8.110;2023-12-29T01:54:34;7.40;;;5.07;;
7471;SDS011;3777;48.722;8.110;2023-12-29T01:57:03;7.30;;;5.10;;
7471;SDS011;3777;48.722;8.110;2023-12-29T01:59:36;6.23;;;5.13;;
7471;SDS011;3777;48.722;8.110;2023-12-29T02:02:04;6.07;;;4.90;;
7471;SDS011;3777;48.722;8.110;2023-12-29T02:04:34;8.00;;;5.23;;
7471;SDS011;3777;48.722;8.110;2023-12-29T02:07:04;7.10;;;5.47;;
7471;SDS011;3777;48.722;8.110;2023-12-29T02:09:31;7.77;;;5.20;;
7471;SDS011;3777;48.722;8.110;2023-12-29T02:11:59;5.53;;;5.03;;
7471;SDS011;3777;48.722;8.110;2023-12-29T02:14:26;5.53;;;5.03;;
7471;SDS011;3777;48.722;8.110;2023-12-29T02:17:01;7.67;;;5.30;;
7471;SDS011;3777;48.722;8.110;2023-12-29T02:19:39;7.80;;;6.20;;
7471;SDS011;3777;48.722;8.110;2023-12-29T02:22:08;7.20;;;5.60;;
7471;SDS011;3777;48.722;8.110;2023-12-29T02:24:36;6.87;;;5.97;;
7471;SDS011;3777;48.722;8.110;2023-12-29T02:27:07;7.40;;;5.80;;
7471;SDS011;3777;48.722;8.110;2023-12-29T02:29:47;6.40;;;5.77;;
7471;SDS011;3777;48.722;8.110;2023-12-29T02:32:30;6.23;;;5.63;;
7471;SDS011;3777;48.722;8.110;2023-12-29T02:34:59;7.10;;;5.60;;
7471;SDS011;3777;48.722;8.110;2023-12-29T02:37:28;6.77;;;5.73;;
7471;SDS011;3777;48.722;8.110;2023-12-29T02:39:59;5.97;;;5.30;;
7471;SDS011;3777;48.722;8.110;2023-12-29T02:42:29;6.80;;;5.23;;
7471;SDS011;3777;48.722;8.110;2023-12-29T02:44:58;6.10;;;5.50;;
7471;SDS011;3777;48.722;8.110;2023-12-29T02:47:25;6.07;;;5.47;;
7471;SDS011;3777;48.722;8.110;2023-12-29T02:49:53;7.30;;;5.57;;
7471;SDS011;3777;48.722;8.110;2023-12-29T02:52:20;6.53;;;5.30;;
7471;SDS011;3777;48.722;8.110;2023-12-29T02:54:47;6.10;;;5.50;;
7471;SDS011;3777;48.722;8.110;2023-12-29T02:57:13;6.10;;;5.10;;
7471;SDS011;3777;48.722;8.110;2023-12-29T02:59:42;5.53;;;5.00;;
7471;SDS011;3777;48.722;8.110;2023-12-29T03:02:09;7.63;;;5.30;;
7471;SDS011;3777;48.722;8.110;2023-12-29T03:04:36;7.03;;;5.23;;
7471;SDS011;3777;48.722;8.110;2023-12-29T03:07:06;6.40;;;5.57;;
7471;SDS011;3777;48.722;8.110;2023-12-29T03:09:33;6.30;;;5.27;;
7471;SDS011;3777;48.722;8.110;2023-12-29T03:12:00;6.07;;;5.47;;
7471;SDS011;3777;48.722;8.110;2023-12-29T03:14:26;6.23;;;5.37;;
7471;SDS011;3777;48.722;8.110;2023-12-29T03:16:55;5.60;;;5.00;;
7471;SDS011;3777;48.722;8.110;2023-12-29T03:19:22;6.50;;;5.27;;
7471;SDS011;3777;48.722;8.110;2023-12-29T03:21:49;6.50;;;5.30;;
7471;SDS011;3777;48.722;8.110;2023-12-29T03:24:19;5.77;;;5.17;;
7471;SDS011;3777;48.722;8.110;2023-12-29T03:26:46;5.90;;;5.30;;
7471;SDS011;3777;48.722;8.110;2023-12-29T03:29:12;5.87;;;4.90;;
7471;SDS011;3777;48.722;8.110;2023-12-29T03:31:39;5.60;;;5.10;;
7471;SDS011;3777;48.722;8.110;2023-12-29T03:34:08;7.13;;;5.23;;
7471;SDS011;3777;48.722;8.110;2023-12-29T03:36:35;5.80;;;5.00;;
7471;SDS011;3777;48.722;8.110;2023-12-29T03:39:02;7.10;;;5.00;;
7471;SDS011;3777;48.722;8.110;2023-12-29T03:41:29;7.00;;;4.97;;
7471;SDS011;3777;48.722;8.110;2023-12-29T03:43:56;6.40;;;5.27;;
7471;SDS011;3777;48.722;8.110;2023-12-29T03:46:24;5.93;;;5.30;;
7471;SDS011;3777;48.722;8.110;2023-12-29T03:48:51;5.63;;;5.03;;
7471;SDS011;3777;48.722;8.110;2023-12-29T03:51:20;6.47;;;4.87;;
7471;SDS011;3777;48.722;8.110;2023-12-29T03:53:47;6.23;;;4.60;;
7471;SDS011;3777;48.722;8.110;2023-12-29T03:56:14;5.53;;;4.90;;
7471;SDS011;3777;48.722;8.110;2023-12-29T03:58:42;5.97;;;5.37;;
7471;SDS011;3777;48.722;8.110;2023-12-29T04:01:09;6.67;;;5.30;;
7471;SDS011;3777;48.722;8.110;2023-12-29T04:03:37;5.57;;;5.00;;
7471;SDS011;3777;48.722;8.110;2023-12-29T04:06:04;5.77;;;4.50;;
7471;SDS011;3777;48.722;8.110;2023-12-29T04:08:32;5.53;;;5.03;;
7471;SDS011;3777;48.722;8.110;2023-12-29T04:10:59;5.40;;;4.60;;
7471;SDS011;3777;48.722;8.110;2023-12-29T04:13:26;5.63;;;4.80;;
7471;SDS011;3777;48.722;8.110;2023-12-29T04:15:53;6.07;;;4.87;;
7471;SDS011;3777;48.722;8.110;2023-12-29T04:18:20;5.60;;;5.03;;
7471;SDS011;3777;48.722;8.110;2023-12-29T04:20:48;7.10;;;5.10;;
7471;SDS011;3777;48.722;8.110;2023-12-29T04:23:15;5.57;;;4.73;;
7471;SDS011;3777;48.722;8.110;2023-12-29T04:25:43;5.20;;;4.70;;
7471;SDS011;3777;48.722;8.110;2023-12-29T04:28:11;4.80;;;4.40;;
7471;SDS011;3777;48.722;8.110;2023-12-29T04:30:38;5.33;;;4.40;;
7471;SDS011;3777;48.722;8.110;2023-12-29T04:33:05;5.10;;;4.70;;
7471;SDS011;3777;48.722;8.110;2023-12-29T04:35:32;4.93;;;4.30;;
7471;SDS011;3777;48.722;8.110;2023-12-29T04:37:58;5.47;;;4.90;;
7471;SDS011;3777;48.722;8.110;2023-12-29T04:40:25;5.30;;;4.40;;
7471;SDS011;3777;48.722;8.110;2023-12-29T04:42:54;4.87;;;4.30;;
7471;SDS011;3777;48.722;8.110;2023-12-29T04:45:23;5.10;;;4.57;;
7471;SDS011;3777;48.722;8.110;2023-12-29T04:47:50;5.40;;;4.70;;
7471;SDS011;3777;48.722;8.110;2023-12-29T04:50:17;5.73;;;4.57;;
7471;SDS011;3777;48.722;8.110;2023-12-29T04:52:44;5.47;;;4.97;;
7471;SDS011;3777;48.722;8.110;2023-12-29T04:55:11;6.50;;;4.70;;
7471;SDS011;3777;48.722;8.110;2023-12-29T04:57:38;4.70;;;4.30;;
7471;SDS011;3777;48.722;8.110;2023-12-29T05:00:07;5.10;;;4.60;;
7471;SDS011;3777;48.722;8.110;2023-12-29T05:02:35;5.70;;;4.87;;
7471;SDS011;3777;48.722;8.110;2023-12-29T05:05:02;5.57;;;5.07;;
7471;SDS011;3777;48.722;8.110;2023-12-29T05:07:29;5.57;;;5.03;;
7471;SDS011;3777;48.722;8.110;2023-12-29T05:09:56;6.37;;;4.87;;
7471;SDS011;3777;48.722;8.110;2023-12-29T05:12:25;5.83;;;4.40;;
7471;SDS011;3777;48.722;8.110;2023-12-29T05:14:52;6.43;;;5.50;;
7471;SDS011;3777;48.722;8.110;2023-12-29T05:17:20;6.10;;;5.50;;
7471;SDS011;3777;48.722;8.110;2023-12-29T05:19:47;5.90;;;5.30;;
7471;SDS011;3777;48.722;8.110;2023-12-29T05:22:14;6.67;;;5.07;;
7471;SDS011;3777;48.722;8.110;2023-12-29T05:24:42;6.23;;;5.43;;
7471;SDS011;3777;48.722;8.110;2023-12-29T05:27:10;5.33;;;4.70;;
7471;SDS011;3777;48.722;8.110;2023-12-29T05:29:37;6.07;;;5.43;;
7471;SDS011;3777;48.722;8.110;2023-12-29T05:32:05;7.60;;;5.50;;
7471;SDS011;3777;48.722;8.110;2023-12-29T05:34:33;7.67;;;5.47;;
7471;SDS011;3777;48.722;8.110;2023-12-29T05:37:01;6.33;;;5.53;;
7471;SDS011;3777;48.722;8.110;2023-12-29T05:39:28;6.07;;;5.17;;
7471;SDS011;3777;48.722;8.110;2023-12-29T05:41:55;5.97;;;5.27;;
7471;SDS011;3777;48.722;8.110;2023-12-29T05:44:22;6.03;;;5.17;;
7471;SDS011;3777;48.722;8.110;2023-12-29T05:46:49;5.83;;;4.93;;
7471;SDS011;3777;48.722;8.110;2023-12-29T05:49:16;5.23;;;4.73;;
7471;SDS011;3777;48.722;8.110;2023-12-29T05:51:44;5.20;;;4.70;;
7471;SDS011;3777;48.722;8.110;2023-12-29T05:54:12;5.47;;;4.90;;
7471;SDS011;3777;48.722;8.110;2023-12-29T05:56:39;5.03;;;4.53;;
7471;SDS011;3777;48.722;8.110;2023-12-29T05:59:09;4.90;;;4.40;;
7471;SDS011;3777;48.722;8.110;2023-12-29T06:01:36;4.97;;;4.43;;
7471;SDS011;3777;48.722;8.110;2023-12-29T06:04:03;6.37;;;5.00;;
7471;SDS011;3777;48.722;8.110;2023-12-29T06:06:30;5.10;;;4.30;;
7471;SDS011;3777;48.722;8.110;2023-12-29T06:08:59;6.07;;;4.83;;
7471;SDS011;3777;48.722;8.110;2023-12-29T06:11:26;5.20;;;4.50;;
7471;SDS011;3777;48.722;8.110;2023-12-29T06:13:53;5.93;;;4.40;;
7471;SDS011;3777;48.722;8.110;2023-12-29T06:16:20;5.27;;;4.53;;
7471;SDS011;3777;48.722;8.110;2023-12-29T06:18:47;5.20;;;4.70;;
7471;SDS011;3777;48.722;8.110;2023-12-29T06:21:16;5.37;;;4.40;;
7471;SDS011;3777;48.722;8.110;2023-12-29T06:23:46;5.10;;;4.13;;
7471;SDS011;3777;48.722;8.110;2023-12-29T06:26:15;5.13;;;4.20;;
7471;SDS011;3777;48.722;8.110;2023-12-29T06:28:43;5.20;;;4.70;;
7471;SDS011;3777;48.722;8.110;2023-12-29T06:31:13;5.10;;;4.20;;
7471;SDS011;3777;48.722;8.110;2023-12-29T06:33:40;5.80;;;4.73;;
7471;SDS011;3777;48.722;8.110;2023-12-29T06:36:08;6.37;;;4.60;;
7471;SDS011;3777;48.722;8.110;2023-12-29T06:38:35;4.60;;;4.20;;
7471;SDS011;3777;48.722;8.110;2023-12-29T06:41:03;5.00;;;4.50;;
7471;SDS011;3777;48.722;8.110;2023-12-29T06:43:32;5.47;;;4.83;;
7471;SDS011;3777;48.722;8.110;2023-12-29T06:45:59;5.37;;;4.67;;
7471;SDS011;3777;48.722;8.110;2023-12-29T06:48:26;5.20;;;4.67;;
7471;SDS011;3777;48.722;8.110;2023-12-29T06:50:53;8.53;;;4.83;;
7471;SDS011;3777;48.722;8.110;2023-12-29T06:53:20;5.40;;;4.90;;
7471;SDS011;3777;48.722;8.110;2023-12-29T06:55:47;5.23;;;4.80;;
7471;SDS011;3777;48.722;8.110;2023-12-29T06:58:14;7.23;;;5.40;;
7471;SDS011;3777;48.722;8.110;2023-12-29T07:00:42;6.10;;;5.10;;
7471;SDS011;3777;48.722;8.110;2023-12-29T07:03:12;7.70;;;5.17;;
7471;SDS011;3777;48.722;8.110;2023-12-29T07:05:39;7.17;;;5.00;;
7471;SDS011;3777;48.722;8.110;2023-12-29T07:08:06;5.77;;;5.17;;
7471;SDS011;3777;48.722;8.110;2023-12-29T07:10:33;7.30;;;4.90;;
7471;SDS011;3777;48.722;8.110;2023-12-29T07:13:00;7.80;;;5.40;;
7471;SDS011;3777;48.722;8.110;2023-12-29T07:15:27;5.47;;;4.90;;
7471;SDS011;3777;48.722;8.110;2023-12-29T07:17:55;5.10;;;4.60;;
7471;SDS011;3777;48.722;8.110;2023-12-29T07:20:22;5.57;;;5.03;;
7471;SDS011;3777;48.722;8.110;2023-12-29T07:22:49;5.67;;;5.07;;
7471;SDS011;3777;48.722;8.110;2023-12-29T07:25:19;6.53;;;4.80;;
7471;SDS011;3777;48.722;8.110;2023-12-29T07:27:46;4.97;;;4.57;;
7471;SDS011;3777;48.722;8.110;2023-12-29T07:30:14;5.17;;;4.67;;
7471;SDS011;3777;48.722;8.110;2023-12-29T07:32:41;5.07;;;4.57;;
7471;SDS011;3777;48.722;8.110;2023-12-29T07:35:10;5.53;;;4.93;;
7471;SDS011;3777;48.722;8.110;2023-12-29T07:37:40;6.50;;;4.73;;
7471;SDS011;3777;48.722;8.110;2023-12-29T07:40:10;5.87;;;4.67;;
7471;SDS011;3777;48.722;8.110;2023-12-29T07:42:38;6.73;;;4.93;;
7471;SDS011;3777;48.722;8.110;2023-12-29T07:45:06;5.50;;;4.63;;
7471;SDS011;3777;48.722;8.110;2023-12-29T07:47:34;5.50;;;4.87;;
7471;SDS011;3777;48.722;8.110;2023-12-29T07:50:02;5.53;;;4.77;;
7471;SDS011;3777;48.722;8.110;2023-12-29T07:52:31;5.53;;;4.60;;
7471;SDS011;3777;48.722;8.110;2023-12-29T07:54:58;5.03;;;4.53;;
7471;SDS011;3777;48.722;8.110;2023-12-29T07:57:25;6.60;;;4.80;;
7471;SDS011;3777;48.722;8.110;2023-12-29T07:59:52;4.60;;;4.20;;
7471;SDS011;3777;48.722;8.110;2023-12-29T08:02:19;4.97;;;4.30;;
7471;SDS011;3777;48.722;8.110;2023-12-29T08:04:46;4.90;;;4.43;;
7471;SDS011;3777;48.722;8.110;2023-12-29T08:07:13;5.23;;;4.07;;
7471;SDS011;3777;48.722;8.110;2023-12-29T08:09:42;4.90;;;4.50;;
7471;SDS011;3777;48.722;8.110;2023-12-29T08:12:09;5.33;;;4.50;;
7471;SDS011;3777;48.722;8.110;2023-12-29T08:14:36;5.13;;;4.13;;
7471;SDS011;3777;48.722;8.110;2023-12-29T08:17:03;4.30;;;3.90;;
7471;SDS011;3777;48.722;8.110;2023-12-29T08:19:30;5.27;;;4.03;;
7471;SDS011;3777;48.722;8.110;2023-12-29T08:21:57;5.00;;;4.13;;
7471;SDS011;3777;48.722;8.110;2023-12-29T08:24:23;5.43;;;4.03;;
7471;SDS011;3777;48.722;8.110;2023-12-29T08:26:52;5.17;;;3.90;;
7471;SDS011;3777;48.722;8.110;2023-12-29T08:29:19;4.10;;;3.70;;
7471;SDS011;3777;48.722;8.110;2023-12-29T08:31:50;4.37;;;3.80;;
7471;SDS011;3777;48.722;8.110;2023-12-29T08:34:17;4.37;;;3.60;;
7471;SDS011;3777;48.722;8.110;2023-12-29T08:36:44;4.10;;;3.70;;
7471;SDS011;3777;48.722;8.110;2023-12-29T08:39:11;4.73;;;4.00;;
7471;SDS011;3777;48.722;8.110;2023-12-29T08:41:38;4.20;;;3.80;;
7471;SDS011;3777;48.722;8.110;2023-12-29T08:44:16;3.83;;;3.50;;
7471;SDS011;3777;48.722;8.110;2023-12-29T08:46:43;3.80;;;3.50;;
7471;SDS011;3777;48.722;8.110;2023-12-29T08:49:10;4.07;;;3.57;;
7471;SDS011;3777;48.722;8.110;2023-12-29T08:51:37;3.90;;;3.60;;
7471;SDS011;3777;48.722;8.110;2023-12-29T08:54:03;4.87;;;3.67;;
7471;SDS011;3777;48.722;8.110;2023-12-29T08:56:32;3.63;;;3.10;;
7471;SDS011;3777;48.722;8.110;2023-12-29T08:58:59;4.23;;;3.83;;
7471;SDS011;3777;48.722;8.110;2023-12-29T09:01:27;4.10;;;3.80;;
7471;SDS011;3777;48.722;8.110;2023-12-29T09:03:54;4.33;;;3.73;;
7471;SDS011;3777;48.722;8.110;2023-12-29T09:06:21;4.67;;;3.80;;
7471;SDS011;3777;48.722;8.110;2023-12-29T09:08:48;4.47;;;4.07;;
7471;SDS011;3777;48.722;8.110;2023-12-29T09:11:15;4.20;;;3.90;;
7471;SDS011;3777;48.722;8.110;2023-12-29T09:13:42;3.90;;;3.60;;
7471;SDS011;3777;48.722;8.110;2023-12-29T09:16:09;5.27;;;4.10;;
7471;SDS011;3777;48.722;8.110;2023-12-29T09:18:37;4.63;;;3.97;;
7471;SDS011;3777;48.722;8.110;2023-12-29T09:21:04;5.57;;;4.10;;
7471;SDS011;3777;48.722;8.110;2023-12-29T09:23:31;4.87;;;3.90;;
7471;SDS011;3777;48.722;8.110;2023-12-29T09:25:58;5.53;;;4.10;;
7471;SDS011;3777;48.722;8.110;2023-12-29T09:28:25;4.43;;;4.03;;
7471;SDS011;3777;48.722;8.110;2023-12-29T09:30:52;4.50;;;4.00;;
7471;SDS011;3777;48.722;8.110;2023-12-29T09:33:22;4.73;;;4.30;;
7471;SDS011;3777;48.722;8.110;2023-12-29T09:35:51;4.43;;;4.00;;
7471;SDS011;3777;48.722;8.110;2023-12-29T09:38:18;5.67;;;3.63;;
7471;SDS011;3777;48.722;8.110;2023-12-29T09:40:45;4.93;;;4.20;;
7471;SDS011;3777;48.722;8.110;2023-12-29T09:43:14;4.40;;;4.00;;
7471;SDS011;3777;48.722;8.110;2023-12-29T09:45:41;4.67;;;4.10;;
7471;SDS011;3777;48.722;8.110;2023-12-29T09:48:11;4.17;;;3.70;;
7471;SDS011;3777;48.722;8.110;2023-12-29T09:50:41;3.83;;;3.40;;
7471;SDS011;3777;48.722;8.110;2023-12-29T09:53:11;3.97;;;3.33;;
7471;SDS011;3777;48.722;8.110;2023-12-29T09:55:41;3.60;;;3.30;;
7471;SDS011;3777;48.722;8.110;2023-12-29T09:58:11;4.87;;;3.33;;
7471;SDS011;3777;48.722;8.110;2023-12-29T10:00:39;4.53;;;3.03;;
7471;SDS011;3777;48.722;8.110;2023-12-29T10:03:06;3.30;;;3.00;;
7471;SDS011;3777;48.722;8.110;2023-12-29T10:05:35;3.60;;;2.97;;
7471;SDS011;3777;48.722;8.110;2023-12-29T10:08:02;3.03;;;2.73;;
7471;SDS011;3777;48.722;8.110;2023-12-29T10:10:32;2.70;;;2.50;;
7471;SDS011;3777;48.722;8.110;2023-12-29T10:13:03;3.97;;;3.20;;
7471;SDS011;3777;48.722;8.110;2023-12-29T10:15:34;3.03;;;2.80;;
7471;SDS011;3777;48.722;8.110;2023-12-29T10:18:07;3.40;;;3.00;;
7471;SDS011;3777;48.722;8.110;2023-12-29T10:20:43;2.67;;;2.47;;
7471;SDS011;3777;48.722;8.110;2023-12-29T10:23:16;2.77;;;2.57;;
7471;SDS011;3777;48.722;8.110;2023-12-29T10:25:46;3.17;;;2.60;;
7471;SDS011;3777;48.722;8.110;2023-12-29T10:28:16;3.03;;;2.73;;
7471;SDS011;3777;48.722;8.110;2023-12-29T10:30:43;3.63;;;2.83;;
7471;SDS011;3777;48.722;8.110;2023-12-29T10:33:10;2.93;;;2.63;;
7471;SDS011;3777;48.722;8.110;2023-12-29T10:35:55;3.07;;;2.77;;
7471;SDS011;3777;48.722;8.110;2023-12-29T10:38:27;3.27;;;2.97;;
7471;SDS011;3777;48.722;8.110;2023-12-29T10:40:55;3.03;;;2.73;;
7471;SDS011;3777;48.722;8.110;2023-12-29T10:43:37;3.10;;;2.57;;
7471;SDS011;3777;48.722;8.110;2023-12-29T10:46:05;2.90;;;2.57;;
7471;SDS011;3777;48.722;8.110;2023-12-29T10:48:33;3.33;;;2.67;;
7471;SDS011;3777;48.722;8.110;2023-12-29T10:51:00;3.07;;;2.40;;
7471;SDS011;3777;48.722;8.110;2023-12-29T10:53:29;3.50;;;2.60;;
7471;SDS011;3777;48.722;8.110;2023-12-29T10:55:57;2.77;;;2.40;;
7471;SDS011;3777;48.722;8.110;2023-12-29T10:58:27;2.80;;;2.60;;
7471;SDS011;3777;48.722;8.110;2023-12-29T11:00:59;3.07;;;2.63;;
7471;SDS011;3777;48.722;8.110;2023-12-29T11:03:26;4.40;;;3.00;;
7471;SDS011;3777;48.722;8.110;2023-12-29T11:05:58;3.00;;;2.70;;
7471;SDS011;3777;48.722;8.110;2023-12-29T11:08:26;3.47;;;2.60;;
7471;SDS011;3777;48.722;8.110;2023-12-29T11:10:53;4.10;;;2.50;;
7471;SDS011;3777;48.722;8.110;2023-12-29T11:13:22;5.37;;;2.70;;
7471;SDS011;3777;48.722;8.110;2023-12-29T11:15:50;2.60;;;2.40;;
7471;SDS011;3777;48.722;8.110;2023-12-29T11:18:21;2.83;;;2.50;;
7471;SDS011;3777;48.722;8.110;2023-12-29T11:20:48;2.77;;;2.57;;
7471;SDS011;3777;48.722;8.110;2023-12-29T11:23:15;4.30;;;2.70;;
7471;SDS011;3777;48.722;8.110;2023-12-29T11:25:43;4.27;;;2.90;;
7471;SDS011;3777;48.722;8.110;2023-12-29T11:28:11;3.03;;;2.60;;
7471;SDS011;3777;48.722;8.110;2023-12-29T11:30:39;3.07;;;2.77;;
7471;SDS011;3777;48.722;8.110;2023-12-29T11:33:08;2.67;;;2.47;;
7471;SDS011;3777;48.722;8.110;2023-12-29T11:35:42;2.80;;;2.60;;
7471;SDS011;3777;48.722;8.110;2023-12-29T11:38:15;3.10;;;2.80;;
7471;SDS011;3777;48.722;8.110;2023-12-29T11:40:52;3.67;;;3.00;;
7471;SDS011;3777;48.722;8.110;2023-12-29T11:43:28;4.10;;;2.80;;
7471;SDS011;3777;48.722;8.110;2023-12-29T11:45:57;3.10;;;2.87;;
7471;SDS011;3777;48.722;8.110;2023-12-29T11:51:29;3.60;;;2.80;;
7471;SDS011;3777;48.722;8.110;2023-12-29T11:53:57;2.63;;;2.43;;
7471;SDS011;3777;48.722;8.110;2023-12-29T11:56:30;4.40;;;2.93;;
7471;SDS011;3777;48.722;8.110;2023-12-29T11:59:11;2.80;;;2.60;;
7471;SDS011;3777;48.722;8.110;2023-12-29T12:01:40;3.30;;;2.50;;
7471;SDS011;3777;48.722;8.110;2023-12-29T12:07:06;2.73;;;2.40;;
7471;SDS011;3777;48.722;8.110;2023-12-29T12:09:34;2.77;;;2.30;;
7471;SDS011;3777;48.722;8.110;2023-12-29T12:12:01;3.43;;;2.40;;
7471;SDS011;3777;48.722;8.110;2023-12-29T12:14:45;2.73;;;2.40;;
7471;SDS011;3777;48.722;8.110;2023-12-29T12:17:27;2.57;;;2.37;;
7471;SDS011;3777;48.722;8.110;2023-12-29T12:19:59;2.53;;;2.33;;
7471;SDS011;3777;48.722;8.110;2023-12-29T12:22:29;2.73;;;2.53;;
7471;SDS011;3777;48.722;8.110;2023-12-29T12:24:58;3.20;;;2.40;;
7471;SDS011;3777;48.722;8.110;2023-12-29T12:27:26;2.60;;;2.40;;
7471;SDS011;3777;48.722;8.110;2023-12-29T12:29:54;3.80;;;2.30;;
7471;SDS011;3777;48.722;8.110;2023-12-29T12:32:22;2.63;;;2.40;;
7471;SDS011;3777;48.722;8.110;2023-12-29T12:34:51;2.40;;;2.20;;
7471;SDS011;3777;48.722;8.110;2023-12-29T12:37:18;2.90;;;2.20;;
7471;SDS011;3777;48.722;8.110;2023-12-29T12:39:46;3.07;;;2.13;;
7471;SDS011;3777;48.722;8.110;2023-12-29T12:42:13;3.37;;;2.37;;
7471;SDS011;3777;48.722;8.110;2023-12-29T12:44:41;2.43;;;2.23;;
7471;SDS011;3777;48.722;8.110;2023-12-29T12:47:14;2.70;;;2.50;;
7471;SDS011;3777;48.722;8.110;2023-12-29T12:49:45;2.37;;;2.17;;
7471;SDS011;3777;48.722;8.110;2023-12-29T12:52:16;2.57;;;2.37;;
7471;SDS011;3777;48.722;8.110;2023-12-29T12:54:43;2.60;;;2.40;;
7471;SDS011;3777;48.722;8.110;2023-12-29T12:57:17;2.60;;;2.40;;
7471;SDS011;3777;48.722;8.110;2023-12-29T12:59:45;2.40;;;2.20;;
7471;SDS011;3777;48.722;8.110;2023-12-29T13:02:13;2.63;;;2.30;;
7471;SDS011;3777;48.722;8.110;2023-12-29T13:04:40;2.60;;;2.40;;
7471;SDS011;3777;48.722;8.110;2023-12-29T13:07:08;3.10;;;2.50;;
7471;SDS011;3777;48.722;8.110;2023-12-29T13:09:37;2.30;;;2.10;;
7471;SDS011;3777;48.722;8.110;2023-12-29T13:12:07;2.50;;;2.30;;
7471;SDS011;3777;48.722;8.110;2023-12-29T13:14:35;2.30;;;2.10;;
7471;SDS011;3777;48.722;8.110;2023-12-29T13:17:05;3.00;;;2.20;;
7471;SDS011;3777;48.722;8.110;2023-12-29T13:19:36;3.17;;;2.40;;
7471;SDS011;3777;48.722;8.110;2023-12-29T13:22:05;1.97;;;1.87;;
7471;SDS011;3777;48.722;8.110;2023-12-29T13:24:34;2.70;;;2.13;;
7471;SDS011;3777;48.722;8.110;2023-12-29T13:27:04;2.27;;;2.07;;
7471;SDS011;3777;48.722;8.110;2023-12-29T13:29:32;2.40;;;2.20;;
7471;SDS011;3777;48.722;8.110;2023-12-29T13:32:03;3.20;;;2.30;;
7471;SDS011;3777;48.722;8.110;2023-12-29T13:34:36;2.73;;;2.50;;
7471;SDS011;3777;48.722;8.110;2023-12-29T13:37:10;2.93;;;2.63;;
7471;SDS011;3777;48.722;8.110;2023-12-29T13:39:45;2.77;;;2.30;;
7471;SDS011;3777;48.722;8.110;2023-12-29T13:42:20;2.97;;;2.67;;
7471;SDS011;3777;48.722;8.110;2023-12-29T13:44:49;3.57;;;2.40;;
7471;SDS011;3777;48.722;8.110;2023-12-29T13:47:18;2.60;;;2.40;;
7471;SDS011;3777;48.722;8.110;2023-12-29T13:49:46;3.10;;;2.80;;
7471;SDS011;3777;48.722;8.110;2023-12-29T13:52:14;4.13;;;3.73;;
7471;SDS011;3777;48.722;8.110;2023-12-29T13:54:43;4.70;;;4.20;;
7471;SDS011;3777;48.722;8.110;2023-12-29T13:57:10;2.60;;;2.40;;
7471;SDS011;3777;48.722;8.110;2023-12-29T13:59:38;2.50;;;2.10;;
7471;SDS011;3777;48.722;8.110;2023-12-29T14:02:23;2.37;;;2.10;;
7471;SDS011;3777;48.722;8.110;2023-12-29T14:07:58;2.10;;;1.90;;
7471;SDS011;3777;48.722;8.110;2023-12-29T14:10:28;1.80;;;1.70;;
7471;SDS011;3777;48.722;8.110;2023-12-29T14:13:02;2.13;;;1.80;;
7471;SDS011;3777;48.722;8.110;2023-12-29T14:15:35;2.33;;;2.13;;
7471;SDS011;3777;48.722;8.110;2023-12-29T14:18:03;6.67;;;5.67;;
7471;SDS011;3777;48.722;8.110;2023-12-29T14:20:34;4.63;;;3.97;;
7471;SDS011;3777;48.722;8.110;2023-12-29T14:23:02;3.40;;;2.23;;
7471;SDS011;3777;48.722;8.110;2023-12-29T14:25:30;3.00;;;2.70;;
7471;SDS011;3777;48.722;8.110;2023-12-29T14:28:00;1.87;;;1.70;;
7471;SDS011;3777;48.722;8.110;2023-12-29T14:30:28;3.50;;;2.00;;
7471;SDS011;3777;48.722;8.110;2023-12-29T14:32:58;2.37;;;1.80;;
7471;SDS011;3777;48.722;8.110;2023-12-29T14:35:25;2.40;;;2.20;;
7471;SDS011;3777;48.722;8.110;2023-12-29T14:37:52;2.20;;;2.00;;
7471;SDS011;3777;48.722;8.110;2023-12-29T14:40:19;2.50;;;2.20;;
7471;SDS011;3777;48.722;8.110;2023-12-29T14:42:46;2.37;;;2.17;;
7471;SDS011;3777;48.722;8.110;2023-12-29T14:45:13;3.60;;;2.30;;
7471;SDS011;3777;48.722;8.110;2023-12-29T14:47:40;2.83;;;2.10;;
7471;SDS011;3777;48.722;8.110;2023-12-29T14:50:12;2.63;;;1.90;;
7471;SDS011;3777;48.722;8.110;2023-12-29T14:52:38;3.07;;;1.90;;
7471;SDS011;3777;48.722;8.110;2023-12-29T14:55:06;2.33;;;1.80;;
7471;SDS011;3777;48.722;8.110;2023-12-29T14:57:33;2.10;;;1.90;;
7471;SDS011;3777;48.722;8.110;2023-12-29T15:00:00;2.20;;;2.00;;
7471;SDS011;3777;48.722;8.110;2023-12-29T15:02:29;3.97;;;2.23;;
7471;SDS011;3777;48.722;8.110;2023-12-29T15:04:56;2.00;;;1.80;;
7471;SDS011;3777;48.722;8.110;2023-12-29T15:07:25;2.47;;;2.27;;
7471;SDS011;3777;48.722;8.110;2023-12-29T15:09:55;2.27;;;1.97;;
7471;SDS011;3777;48.722;8.110;2023-12-29T15:12:22;2.63;;;1.87;;
7471;SDS011;3777;48.722;8.110;2023-12-29T15:14:49;2.27;;;1.97;;
7471;SDS011;3777;48.722;8.110;2023-12-29T15:17:16;2.07;;;1.83;;
7471;SDS011;3777;48.722;8.110;2023-12-29T15:19:43;2.03;;;1.90;;
7471;SDS011;3777;48.722;8.110;2023-12-29T15:22:10;2.40;;;1.97;;
7471;SDS011;3777;48.722;8.110;2023-12-29T15:24:38;2.67;;;2.40;;
7471;SDS011;3777;48.722;8.110;2023-12-29T15:27:05;2.37;;;2.00;;
7471;SDS011;3777;48.722;8.110;2023-12-29T15:29:32;2.07;;;1.87;;
7471;SDS011;3777;48.722;8.110;2023-12-29T15:32:00;2.67;;;2.07;;